createdAt,value
2023-03-22T00:01:30.398Z,9.69
2023-03-22T00:03:57.173Z,9.62
2023-03-22T00:06:26.397Z,9.58
2023-03-22T00:08:53.217Z,9.60
2023-03-22T00:11:24.351Z,9.70
2023-03-22T00:13:52.054Z,9.71
2023-03-22T00:16:19.474Z,9.61
2023-03-22T00:19:02.070Z,9.55
2023-03-22T00:21:30.554Z,9.50
2023-03-22T00:23:57.156Z,9.49
2023-03-22T00:26:23.948Z,9.55
2023-03-22T00:28:51.028Z,9.60
2023-03-22T00:31:22.458Z,9.53
2023-03-22T00:33:49.843Z,9.45
2023-03-22T00:36:16.661Z,9.37
2023-03-22T00:38:45.250Z,9.32
2023-03-22T00:41:16.929Z,9.38
2023-03-22T00:43:45.842Z,9.42
2023-03-22T00:46:13.653Z,9.38
2023-03-22T00:48:40.389Z,9.32
2023-03-22T00:51:07.986Z,9.29
2023-03-22T00:53:37.613Z,9.26
2023-03-22T00:56:08.078Z,9.23
2023-03-22T00:58:42.805Z,9.30
2023-03-22T01:01:14.119Z,9.32
2023-03-22T01:03:42.386Z,9.29
2023-03-22T01:06:10.467Z,9.24
2023-03-22T01:08:38.229Z,9.17
2023-03-22T01:11:06.429Z,9.12
2023-03-22T01:13:36.927Z,9.19
2023-03-22T01:16:05.307Z,9.25
2023-03-22T01:18:34.166Z,9.23
2023-03-22T01:21:02.196Z,9.20
2023-03-22T01:23:29.269Z,9.14
2023-03-22T01:25:55.926Z,9.07
2023-03-22T01:28:24.239Z,9.12
2023-03-22T01:30:53.923Z,9.11
2023-03-22T01:33:21.347Z,9.06
2023-03-22T01:35:48.627Z,9.05
2023-03-22T01:38:16.374Z,9.04
2023-03-22T01:40:50.388Z,9.13
2023-03-22T01:43:18.190Z,9.15
2023-03-22T01:45:50.907Z,9.07
2023-03-22T01:48:41.325Z,8.97
2023-03-22T01:51:10.436Z,8.86
2023-03-22T01:53:54.612Z,8.80
2023-03-22T01:56:29.907Z,8.84
2023-03-22T01:58:56.663Z,8.89
2023-03-22T02:01:32.837Z,8.84
2023-03-22T02:04:02.618Z,8.81
2023-03-22T02:06:31.737Z,8.77
2023-03-22T02:09:08.544Z,8.77
2023-03-22T02:11:40.889Z,8.87
2023-03-22T02:14:15.176Z,8.96
2023-03-22T02:17:31.906Z,8.98
2023-03-22T02:20:27.728Z,8.96
2023-03-22T02:23:18.809Z,8.88
2023-03-22T02:25:59.086Z,8.89
2023-03-22T02:28:38.819Z,8.82
2023-03-22T02:31:11.476Z,8.68
2023-03-22T02:33:51.274Z,8.55
2023-03-22T02:36:37.369Z,8.47
2023-03-22T02:39:09.482Z,8.52
2023-03-22T02:41:54.313Z,8.52
2023-03-22T02:44:27.384Z,8.48
2023-03-22T02:47:03.528Z,8.39
2023-03-22T02:49:42.341Z,8.35
2023-03-22T02:52:20.997Z,8.46
2023-03-22T02:55:04.157Z,8.54
2023-03-22T02:57:40.251Z,8.58
2023-03-22T03:00:12.426Z,8.62
2023-03-22T03:02:43.440Z,8.66
2023-03-22T03:05:10.255Z,8.77
2023-03-22T03:07:36.970Z,8.83
2023-03-22T03:10:04.630Z,8.80
2023-03-22T03:12:32.387Z,8.75
2023-03-22T03:14:59.936Z,8.70
2023-03-22T03:17:58.939Z,8.69
2023-03-22T03:20:29.582Z,8.79
2023-03-22T03:22:56.349Z,8.80
2023-03-22T03:25:31.833Z,8.70
2023-03-22T03:28:22.532Z,8.60
2023-03-22T03:30:55.700Z,8.57
2023-03-22T03:33:25.400Z,8.65
2023-03-22T03:35:59.469Z,8.66
2023-03-22T03:38:28.281Z,8.56
2023-03-22T03:41:03.038Z,8.50
2023-03-22T03:43:30.744Z,8.47
2023-03-22T03:45:57.534Z,8.54
2023-03-22T03:48:28.161Z,8.56
2023-03-22T03:50:55.808Z,8.53
2023-03-22T03:53:22.888Z,8.51
2023-03-22T03:55:49.599Z,8.50
2023-03-22T03:58:16.945Z,8.48
2023-03-22T04:00:45.715Z,8.51
2023-03-22T04:03:35.673Z,8.45
2023-03-22T04:06:11.216Z,8.33
2023-03-22T04:08:41.150Z,8.23
2023-03-22T04:11:08.963Z,8.19
2023-03-22T04:13:37.399Z,8.28
2023-03-22T04:16:06.936Z,8.37
2023-03-22T04:18:35.495Z,8.31
2023-03-22T04:21:05.122Z,8.25
2023-03-22T04:23:38.704Z,8.23
2023-03-22T04:26:06.496Z,8.37
2023-03-22T04:28:49.057Z,8.50
2023-03-22T04:31:17.876Z,8.49
2023-03-22T04:33:54.329Z,8.46
2023-03-22T04:36:30.520Z,8.40
2023-03-22T04:39:16.381Z,8.40
2023-03-22T04:41:50.153Z,8.48
2023-03-22T04:44:17.783Z,8.51
2023-03-22T04:46:48.917Z,8.52
2023-03-22T04:49:16.301Z,8.52
2023-03-22T04:51:44.936Z,8.56
2023-03-22T04:54:19.704Z,8.71
2023-03-22T04:56:46.444Z,8.83
2023-03-22T04:59:14.011Z,8.86
2023-03-22T05:01:47.713Z,8.85
2023-03-22T05:04:16.962Z,8.85
2023-03-22T05:06:44.341Z,8.94
2023-03-22T05:09:16.937Z,8.99
2023-03-22T05:11:44.196Z,8.97
2023-03-22T05:14:31.190Z,8.97
2023-03-22T05:16:58.965Z,8.99
2023-03-22T05:19:27.047Z,9.08
2023-03-22T05:21:57.538Z,9.17
2023-03-22T05:24:26.501Z,9.13
2023-03-22T05:26:53.401Z,9.07
2023-03-22T05:29:23.776Z,9.03
2023-03-22T05:32:12.700Z,9.02
2023-03-22T05:34:42.186Z,9.14
2023-03-22T05:37:20.584Z,9.21
2023-03-22T05:39:55.109Z,9.19
2023-03-22T05:42:26.248Z,9.15
2023-03-22T05:44:52.941Z,9.11
2023-03-22T05:47:21.592Z,9.21
2023-03-22T05:50:08.483Z,9.31
2023-03-22T05:52:35.454Z,9.32
2023-03-22T05:55:21.755Z,9.31
2023-03-22T05:57:53.263Z,9.31
2023-03-22T06:00:21.127Z,9.41
2023-03-22T06:03:10.482Z,9.47
2023-03-22T06:05:41.721Z,9.43
2023-03-22T06:08:10.384Z,9.38
2023-03-22T06:10:37.622Z,9.31
2023-03-22T06:13:08.047Z,9.28
2023-03-22T06:15:34.848Z,9.37
2023-03-22T06:18:07.941Z,9.45
2023-03-22T06:20:40.108Z,9.45
2023-03-22T06:23:11.668Z,9.41
2023-03-22T06:25:38.845Z,9.40
2023-03-22T06:28:08.604Z,9.46
2023-03-22T06:30:36.450Z,9.59
2023-03-22T06:33:12.113Z,9.68
2023-03-22T06:35:41.033Z,9.70
2023-03-22T06:38:08.607Z,9.73
2023-03-22T06:40:37.349Z,9.80
2023-03-22T06:43:07.109Z,9.94
2023-03-22T06:45:35.576Z,10.06
2023-03-22T06:48:03.220Z,10.08
2023-03-22T06:50:52.933Z,10.11
2023-03-22T06:53:25.934Z,10.14
2023-03-22T06:55:55.229Z,10.16
2023-03-22T06:58:23.514Z,10.31
2023-03-22T07:00:51.994Z,10.44
2023-03-22T07:03:21.517Z,10.48
2023-03-22T07:06:03.010Z,10.49
2023-03-22T07:08:31.657Z,10.54
2023-03-22T07:11:06.005Z,10.61
2023-03-22T07:13:34.955Z,10.78
2023-03-22T07:16:04.063Z,10.90
2023-03-22T07:18:41.538Z,10.92
2023-03-22T07:21:08.860Z,10.98
2023-03-22T07:23:36.179Z,11.02
2023-03-22T07:26:09.397Z,11.03
2023-03-22T07:28:41.086Z,11.10
2023-03-22T07:31:12.184Z,11.18
2023-03-22T07:33:47.791Z,11.28
2023-03-22T07:36:23.615Z,11.34
2023-03-22T07:38:53.600Z,11.43
2023-03-22T07:41:26.560Z,11.54
2023-03-22T07:44:11.188Z,11.73
2023-03-22T07:46:48.004Z,11.87
2023-03-22T07:49:21.600Z,11.91
2023-03-22T07:52:04.827Z,11.97
2023-03-22T07:54:34.346Z,11.96
2023-03-22T07:57:03.826Z,12.02
2023-03-22T07:59:31.454Z,12.09
2023-03-22T08:01:59.206Z,12.24
2023-03-22T08:04:30.172Z,12.36
2023-03-22T08:07:18.231Z,12.39
2023-03-22T08:09:47.105Z,12.43
2023-03-22T08:12:16.166Z,12.52
2023-03-22T08:14:50.053Z,12.66
2023-03-22T08:17:22.211Z,12.77
2023-03-22T08:19:50.159Z,12.92
2023-03-22T08:22:25.382Z,13.01
2023-03-22T08:25:11.009Z,13.07
2023-03-22T08:27:39.079Z,13.08
2023-03-22T08:30:06.720Z,13.08
2023-03-22T08:32:34.326Z,13.11
2023-03-22T08:35:08.849Z,13.14
2023-03-22T08:37:35.919Z,13.21
2023-03-22T08:40:06.904Z,13.31
2023-03-22T08:42:38.580Z,13.34
2023-03-22T08:45:06.145Z,13.35
2023-03-22T08:47:33.596Z,13.40
2023-03-22T08:50:02.498Z,13.54
2023-03-22T08:53:05.110Z,13.83
2023-03-22T08:55:34.861Z,13.99
2023-03-22T08:58:15.722Z,14.19
2023-03-22T09:01:02.646Z,14.44
2023-03-22T09:03:47.523Z,14.58
2023-03-22T09:06:15.698Z,14.65
2023-03-22T09:08:53.033Z,14.71
2023-03-22T09:11:22.446Z,14.74
2023-03-22T09:13:50.574Z,14.84
2023-03-22T09:16:20.175Z,15.16
2023-03-22T09:18:47.081Z,15.77
2023-03-22T09:21:18.308Z,16.34
2023-03-22T09:23:51.041Z,16.63
2023-03-22T09:26:22.036Z,16.87
2023-03-22T09:28:49.767Z,17.11
2023-03-22T09:31:20.821Z,17.38
2023-03-22T09:33:50.435Z,17.52
2023-03-22T09:36:17.556Z,17.57
2023-03-22T09:38:46.076Z,17.55
2023-03-22T09:41:26.973Z,17.50
2023-03-22T09:43:58.902Z,17.35
2023-03-22T09:46:30.738Z,17.27
2023-03-22T09:49:02.109Z,17.37
2023-03-22T09:51:47.094Z,17.84
2023-03-22T09:54:33.660Z,18.65
2023-03-22T09:57:46.948Z,19.65
2023-03-22T10:00:29.017Z,20.71
2023-03-22T10:03:31.972Z,21.15
2023-03-22T10:06:07.976Z,20.92
2023-03-22T10:08:44.225Z,20.48
2023-03-22T10:11:18.865Z,20.05
2023-03-22T10:14:10.338Z,19.72
2023-03-22T10:16:38.189Z,19.37
2023-03-22T10:19:12.061Z,19.13
2023-03-22T10:21:38.701Z,18.83
2023-03-22T10:24:15.822Z,18.45
2023-03-22T10:26:45.450Z,17.98
2023-03-22T10:29:31.212Z,17.57
2023-03-22T10:32:08.955Z,17.15
2023-03-22T10:34:36.144Z,16.80
2023-03-22T10:37:04.092Z,16.49
2023-03-22T10:39:36.370Z,16.17
2023-03-22T10:42:15.313Z,15.86
2023-03-22T10:44:50.338Z,15.56
2023-03-22T10:47:18.544Z,15.36
2023-03-22T10:52:48.547Z,15.06
2023-03-22T10:55:17.606Z,15.04
2023-03-22T10:57:59.485Z,15.12
2023-03-22T11:00:28.888Z,15.38
2023-03-22T11:02:59.476Z,15.96
2023-03-22T11:05:33.519Z,16.67
2023-03-22T11:08:02.518Z,17.50
2023-03-22T11:10:34.486Z,18.47
2023-03-22T11:13:09.516Z,19.55
2023-03-22T11:15:59.207Z,20.67
2023-03-22T11:18:31.017Z,21.77
2023-03-22T11:21:01.045Z,22.55
2023-03-22T11:23:30.762Z,23.37
2023-03-22T11:26:03.962Z,24.32
2023-03-22T11:28:36.317Z,25.17
2023-03-22T11:31:05.951Z,25.41
2023-03-22T11:33:34.321Z,25.01
2023-03-22T11:36:14.887Z,24.36
2023-03-22T11:38:47.253Z,23.77
2023-03-22T11:41:24.129Z,23.01
2023-03-22T11:43:54.740Z,22.37
2023-03-22T11:46:22.839Z,21.65
2023-03-22T11:48:52.762Z,20.99
2023-03-22T11:51:35.743Z,20.43
2023-03-22T11:54:09.375Z,20.16
2023-03-22T11:56:41.370Z,19.96
2023-03-22T11:59:14.104Z,19.80
2023-03-22T12:02:03.480Z,19.58
2023-03-22T12:04:35.121Z,19.46
2023-03-22T12:07:05.150Z,19.27
2023-03-22T12:10:00.927Z,18.97
2023-03-22T12:12:33.150Z,18.61
2023-03-22T12:15:05.831Z,18.44
2023-03-22T12:17:36.303Z,18.37
2023-03-22T12:20:11.329Z,18.26
2023-03-22T12:22:42.291Z,18.11
2023-03-22T12:25:17.896Z,17.91
2023-03-22T12:27:53.732Z,17.69
2023-03-22T12:30:27.042Z,17.51
2023-03-22T12:33:17.078Z,17.36
2023-03-22T12:35:46.335Z,17.13
2023-03-22T12:38:24.991Z,16.94
2023-03-22T12:40:53.689Z,16.71
2023-03-22T12:43:40.318Z,16.45
2023-03-22T12:46:21.781Z,16.22
2023-03-22T12:48:56.985Z,16.05
2023-03-22T12:51:25.887Z,15.88
2023-03-22T12:53:56.924Z,15.85
2023-03-22T12:56:27.785Z,16.17
2023-03-22T12:59:01.812Z,16.51
2023-03-22T13:01:36.601Z,16.62
2023-03-22T13:04:27.589Z,16.59
2023-03-22T13:06:58.009Z,16.46
2023-03-22T13:09:42.564Z,16.32
2023-03-22T13:12:16.615Z,16.08
2023-03-22T13:14:52.854Z,15.80
2023-03-22T13:17:24.309Z,15.54
2023-03-22T13:20:11.613Z,15.31
2023-03-22T13:22:46.088Z,15.16
2023-03-22T13:25:19.262Z,15.02
2023-03-22T13:28:26.712Z,14.85
2023-03-22T13:30:56.722Z,14.63
2023-03-22T13:33:30.271Z,14.47
2023-03-22T13:36:23.231Z,14.33
2023-03-22T13:39:05.162Z,14.24
2023-03-22T13:41:34.954Z,14.20
2023-03-22T13:44:19.399Z,14.20
2023-03-22T13:46:53.021Z,14.23
2023-03-22T13:49:50.479Z,14.26
2023-03-22T13:52:27.739Z,14.28
2023-03-22T13:54:57.851Z,14.29
2023-03-22T13:57:50.556Z,14.32
2023-03-22T14:00:41.495Z,14.35
2023-03-22T14:03:16.442Z,14.40
2023-03-22T14:05:45.546Z,14.43
2023-03-22T14:08:22.108Z,14.48
2023-03-22T14:10:55.517Z,14.52
2023-03-22T14:13:33.302Z,14.54
2023-03-22T14:16:18.770Z,14.53
2023-03-22T14:18:48.961Z,14.45
2023-03-22T14:21:19.511Z,14.32
